CÀNOVES I SAMALÚS (Vallès Oriental)





Hora UTC 17:40
Temperatura 13.7 ºC
Humedad 81.9 %
Presión 1012.2 hPa
Pluja 0.0 mm
Velocidad viento 9.1 km/h
Dirección viento SE
Radiación solar 21.1 W/m²

Datos diarios 2024-04-16



Hora UTC (invierno +1h; verano +2h)
Temperatura (ºC) Humedad (%) Presión (hPa) Velocidad viento (km/h) Precipitación (mm) Radiación solar (W/m²)
Hora UTC Aire Humedad Presión Vel. Dir. Vel. Max Dir. Intent. máx 5 min. Rad. Sol.
00:05 12.3 73.3 1016.6 4.4 N 4.4 N 0.0 0.1
00:10 12.1 73.8 1016.6 4.4 N 6.7 N 0.0 0.1
00:15 12.1 74.1 1016.5 4.3 N 6.7 N 0.0 0.1
00:20 12.0 75.1 1016.3 3.6 N 6.4 0.0 0.1
00:25 12.0 74.5 1016.1 6.3 NNW 9.2 NNW 0.0 0.1
00:30 12.0 73.9 1016.1 3.6 N 6.7 N 0.0 0.1
00:35 11.9 74.7 1016.1 4.2 NNE 6.7 NNW 0.0 0.1
00:40 11.9 75.2 1016.1 5.0 N 8.5 NNE 0.0 0.1
00:45 12.1 74.8 1016.1 4.9 NNW 7.4 NNW 0.0 0.1
00:50 12.2 74.7 1016.0 4.5 NNW 7.4 NNW 0.0 0.1
00:55 12.3 74.7 1015.9 4.2 N 6.7 NNW 0.0 0.1
01:00 12.4 75.0 1015.9 4.2 N 6.0 N 0.0 0.1
01:05 12.5 75.0 1015.8 3.5 NNW 6.0 NNW 0.0 0.1
01:10 12.4 75.6 1015.7 4.8 NNW 7.4 NNW 0.0 0.1
01:15 12.3 75.2 1015.7 6.0 N 8.8 N 0.0 0.1
01:20 12.3 75.1 1015.7 5.5 NNW 8.5 NNW 0.0 0.1
01:25 12.2 75.9 1015.6 5.0 N 9.2 N 0.0 0.1
01:30 12.0 76.0 1015.5 4.3 N 7.1 N 0.0 0.1
01:35 11.8 76.8 1015.4 3.0 NNW 5.6 NNW 0.0 0.1
01:40 11.6 78.7 1015.4 3.3 NNW 4.9 NNW 0.0 0.1
01:45 11.5 80.0 1015.3 3.0 NNW 5.3 N 0.0 0.1
01:50 11.5 82.0 1015.3 2.3 NNW 3.5 NNW 0.0 0.1
01:55 11.4 81.2 1015.2 4.3 N 9.5 N 0.0 0.1
02:00 11.6 77.9 1015.1 3.6 NNW 8.5 N 0.0 0.1
02:05 11.6 78.6 1015.1 4.2 NNW 7.1 NNW 0.0 0.1
02:10 11.6 79.7 1015.1 4.0 NNW 6.4 NNW 0.0 0.1
02:15 11.7 79.2 1015.1 5.4 N 8.5 N 0.0 0.1
02:20 11.9 77.4 1015.1 5.2 N 7.4 N 0.0 0.1
02:25 12.0 76.4 1015.1 5.7 N 9.2 N 0.0 0.1
02:30 12.0 76.1 1015.0 6.1 NNW 9.5 NNW 0.0 0.1
02:35 12.0 76.8 1015.0 5.0 N 11.6 N 0.0 0.1
02:40 12.1 76.8 1015.0 4.0 N 6.7 N 0.0 0.1
02:45 12.1 77.3 1014.9 5.6 N 9.5 N 0.0 0.1
02:50 12.2 76.9 1014.8 4.2 NNW 7.1 N 0.0 0.1
02:55 12.1 77.1 1014.8 2.9 NNW 5.6 0.0 0.1
03:00 12.2 77.1 1014.8 4.2 N 6.0 NNW 0.0 0.1
03:05 12.2 77.3 1014.9 3.8 N 6.4 NNE 0.0 0.1
03:10 12.3 77.4 1014.8 4.5 NNW 7.8 NNE 0.0 0.1
03:15 12.3 77.5 1014.7 3.3 NW 8.5 NNW 0.0 0.1
03:20 12.3 77.8 1014.7 4.5 NW 9.5 NW 0.0 0.1
03:25 12.4 76.5 1014.7 2.5 NNW 6.4 N 0.0 0.1
03:30 12.6 74.7 1014.8 5.9 N 12.0 N 0.0 0.1
03:35 12.8 74.0 1014.8 3.1 N 9.2 NNE 0.0 0.1
03:40 12.8 73.7 1014.7 3.3 N 7.1 N 0.0 0.1
03:45 12.9 73.5 1014.7 5.1 N 9.5 NNW 0.0 0.1
03:50 12.9 73.6 1014.6 5.1 NNW 9.5 NNW 0.0 0.1
03:55 12.9 74.2 1014.6 5.1 NW 8.1 NW 0.0 0.1
04:00 12.9 74.1 1014.5 2.9 NNW 7.1 NNW 0.0 0.1
04:05 12.9 74.0 1014.4 2.8 NE 5.6 NE 0.0 0.1
04:10 12.7 74.8 1014.3 2.7 E 4.9 E 0.0 0.1
04:15 12.7 75.7 1014.2 1.7 ENE 3.9 NE 0.0 0.1
04:20 12.7 75.5 1014.1 0.7 N 2.8 NNW 0.0 0.1
04:25 12.7 76.5 1014.1 2.2 NNW 6.4 NNW 0.0 0.1
04:30 12.9 76.0 1014.0 1.8 NNW 4.2 NNW 0.0 0.1
04:35 12.9 75.8 1014.0 1.3 NNW 3.2 N 0.0 0.1
04:40 12.9 76.4 1014.1 2.1 WNW 3.2 WNW 0.0 0.1
04:45 13.0 76.8 1014.1 0.1 NW 1.4 WNW 0.0 0.1
04:50 12.9 77.1 1014.0 0.0 NNE 1.1 NNE 0.0 0.2
04:55 12.8 77.8 1013.8 2.7 SE 4.9 SE 0.0 0.4
05:00 12.6 80.3 1013.7 2.4 SSE 5.6 SE 0.0 0.8
05:05 12.5 82.1 1014.0 1.4 SSE 3.2 SSE 0.0 1.5
05:10 12.4 84.0 1014.0 2.1 S 3.9 SSW 0.0 2.6
05:15 12.3 85.1 1014.1 0.8 SSW 2.8 SSW 0.0 3.7
05:20 12.3 86.1 1014.2 2.5 S 4.6 S 0.0 4.9
05:25 12.3 87.2 1014.3 2.4 SW 4.2 S 0.0 5.6
05:30 12.3 88.0 1014.4 2.2 S 4.2 S 0.0 5.9
05:35 12.4 88.3 1014.5 3.6 SE 5.3 SE 0.0 6.4
05:40 12.3 88.4 1014.5 2.4 SE 5.6 SE 0.0 11.3
05:45 12.3 88.5 1014.4 3.5 SE 6.0 SSE 0.0 17.7
05:50 12.3 88.8 1014.3 3.5 SE 5.6 ESE 0.0 23.4
05:55 12.2 88.8 1014.4 1.9 ESE 5.3 E 0.0 27.8
06:00 12.2 87.9 1014.4 3.1 ESE 7.1 SE 0.0 29.4
06:05 12.1 87.0 1014.4 3.8 ESE 6.4 SSE 0.0 29.7
06:10 12.1 85.4 1014.2 3.2 SE 4.9 SE 0.0 44.8
06:15 12.1 83.8 1014.3 3.8 ESE 6.0 SE 0.0 32.9
06:20 12.1 82.4 1014.4 2.8 ENE 6.7 E 0.0 25.7
06:25 12.2 81.8 1014.4 1.1 ESE 3.2 ESE 0.0 25.1
06:30 12.2 82.0 1014.4 1.5 E 4.2 E 0.0 28.6
06:35 12.2 82.5 1014.4 0.2 ENE 2.1 ENE 0.0 33.7
06:40 12.3 83.3 1014.3 0.1 ENE 1.4 ENE 0.0 40.2
06:45 12.3 83.3 1014.4 1.1 ENE 2.8 ENE 0.0 38.3
06:50 12.4 83.9 1014.4 1.1 E 3.5 E 0.0 40.8
06:55 12.4 84.0 1014.3 1.5 SE 3.9 SSE 0.0 40.9
07:00 12.4 84.5 1014.2 3.9 SE 8.1 SE 0.0 43.6
07:05 12.3 85.0 1014.2 5.3 ESE 9.5 SE 0.0 46.9
07:10 12.3 84.7 1014.2 4.0 E 7.8 E 0.0 57.5
07:15 12.3 84.3 1014.2 4.5 ESE 7.8 E 0.0 60.2
07:20 12.3 84.4 1014.2 2.1 ESE 4.9 SE 0.0 59.4
07:25 12.3 84.4 1014.2 3.2 ESE 5.3 ESE 0.0 70.9
07:30 12.3 84.5 1014.2 3.6 ESE 5.6 E 0.0 85.3
07:35 12.4 84.1 1014.3 3.2 E 6.4 E 0.0 101.5
07:40 12.5 84.4 1014.2 4.2 E 6.7 ESE 0.0 128.4
07:45 12.6 84.2 1014.2 2.3 E 6.4 E 0.0 158.1
07:50 12.8 84.2 1014.3 1.5 E 4.6 E 0.0 175.5
07:55 12.9 83.3 1014.2 5.9 SE 9.9 SE 0.0 182.3
08:00 12.8 82.9 1014.2 5.9 SE 8.8 SE 0.0 196.4
08:05 12.8 83.3 1014.2 3.6 SE 5.6 E 0.0 216.2
08:10 12.9 83.5 1014.3 2.8 SE 6.7 SSE 0.0 219.6
08:15 13.1 83.0 1014.2 5.8 SE 8.1 SSE 0.0 246.9
08:20 13.2 82.8 1014.2 4.0 SSE 7.4 ESE 0.0 276.0
08:25 13.4 82.4 1014.3 3.3 SE 6.4 ESE 0.0 308.9
08:30 13.6 81.6 1014.3 4.0 ESE 6.4 SE 0.0 321.9
08:35 13.8 81.1 1014.3 6.2 SE 10.6 ESE 0.0 422.2
08:40 13.9 80.6 1014.3 4.4 SE 9.5 SE 0.0 416.9
08:45 14.0 80.0 1014.3 3.8 ESE 8.8 SSE 0.0 360.6
08:50 14.2 79.1 1014.3 4.5 ESE 10.9 ESE 0.0 389.6
08:55 14.2 79.3 1014.3 3.5 E 7.4 E 0.0 358.9
09:00 14.6 78.7 1014.2 6.6 ESE 13.1 SSE 0.0 678.2
09:05 14.9 76.7 1014.3 4.9 SE 12.4 E 0.0 854.0
09:10 15.5 75.0 1014.2 7.4 E 12.4 ESE 0.0 701.0
09:15 15.9 74.2 1014.3 5.2 ESE 10.2 ESE 0.0 707.6
09:20 16.4 72.3 1014.2 5.5 ESE 8.8 SE 0.0 881.0
09:25 16.4 70.5 1014.2 6.4 SSE 13.1 SSE 0.0 753.1
09:30 16.5 70.8 1014.2 5.9 SSE 12.4 SE 0.0 699.6
09:35 16.3 69.4 1014.1 6.5 S 14.1 SSE 0.0 354.8
09:40 16.1 68.3 1014.2 5.7 SW 9.5 S 0.0 765.1
09:45 16.6 66.8 1014.1 8.5 SSE 17.3 SE 0.0 837.0
09:50 16.7 66.1 1014.1 6.8 SSE 16.2 S 0.0 828.0
09:55 17.2 64.3 1014.0 5.8 SSE 16.6 SSW 0.0 836.0
10:00 17.2 59.9 1014.0 8.8 S 15.5 SE 0.0 783.6
10:05 17.5 58.0 1013.9 3.7 W 8.1 W 0.0 883.0
10:10 17.9 58.3 1013.9 7.4 WSW 15.2 W 0.0 923.0
10:15 17.9 58.6 1013.8 7.5 SSW 15.9 SSE 0.0 690.5
10:20 17.8 57.3 1013.8 5.8 SSE 10.6 SSE 0.0 523.8
10:25 17.4 56.3 1013.8 8.4 S 18.7 SSE 0.0 640.3
10:30 17.4 56.4 1013.7 6.8 SSW 17.3 S 0.0 857.0
10:35 17.6 55.6 1013.7 9.4 SSW 21.2 SSE 0.0 674.8
10:40 17.7 55.2 1013.7 10.0 S 17.3 S 0.0 656.6
10:45 17.8 56.1 1013.7 8.8 SSE 17.6 SE 0.0 877.0
10:50 18.1 53.9 1013.6 7.5 SSW 16.6 S 0.0 875.0
10:55 17.7 53.9 1013.5 8.2 SW 18.7 WSW 0.0 857.0
11:00 18.2 56.1 1013.4 8.4 S 16.6 SSE 0.0 561.0
11:05 18.0 59.2 1013.4 13.0 SE 19.8 SSE 0.0 726.3
11:10 17.7 60.4 1013.3 12.6 SE 21.2 ESE 0.0 938.0
11:15 17.9 60.6 1013.2 13.2 SE 21.9 SE 0.0 936.0
11:20 18.1 61.4 1013.2 12.2 SE 23.3 ESE 0.0 935.0
11:25 18.4 61.2 1013.1 13.5 SE 24.0 SSE 0.0 903.0
11:30 18.3 60.9 1013.1 13.3 SE 21.2 E 0.0 904.0
11:35 18.4 60.1 1013.2 10.0 SE 18.4 SSE 0.0 824.0
11:40 18.3 59.8 1013.1 11.3 ESE 19.8 SE 0.0 830.0
11:45 18.4 59.1 1013.0 9.8 SE 22.9 ESE 0.0 601.5
11:50 18.3 59.2 1012.9 9.9 SE 15.5 E 0.0 782.9
11:55 18.6 58.0 1012.8 9.9 SSE 18.7 SE 0.0 870.0
12:00 18.7 58.0 1012.7 12.1 SSE 22.2 SSE 0.0 877.0
12:05 18.7 58.8 1012.7 12.6 SSE 25.8 SE 0.0 900.0
12:10 19.1 58.6 1012.6 10.7 SE 19.8 ESE 0.0 903.0
12:15 18.9 59.2 1012.6 14.6 SE 23.3 ESE 0.0 884.0
12:20 18.5 60.8 1012.6 16.3 SE 26.1 SE 0.0 889.0
12:25 18.4 61.6 1012.7 15.3 SSE 27.5 SSE 0.0 948.0
12:30 18.3 62.5 1012.7 14.2 SE 23.3 ESE 0.0 953.0
12:35 18.1 62.5 1012.7 12.4 SE 20.8 ESE 0.0 894.0
12:40 18.2 62.8 1012.7 12.3 SE 20.5 E 0.0 870.0
12:45 18.4 62.4 1012.7 10.4 SE 20.5 SSE 0.0 878.0
12:50 18.2 62.2 1012.6 13.7 ESE 23.3 SSE 0.0 890.0
12:55 18.2 62.5 1012.7 12.7 SE 27.9 ESE 0.0 915.0
13:00 18.0 62.7 1012.6 12.4 ESE 20.5 SSE 0.0 433.2
13:05 17.3 63.8 1012.6 10.9 ESE 22.9 ESE 0.0 303.4
13:10 17.1 65.1 1012.5 11.2 SE 19.8 SSE 0.0 450.7
13:15 17.1 65.4 1012.5 11.2 ESE 24.3 SE 0.0 483.0
13:20 17.4 65.3 1012.4 9.5 ESE 22.9 E 0.0 569.7
13:25 17.4 65.3 1012.4 8.8 ESE 18.0 SE 0.0 840.0
13:30 18.3 63.7 1012.4 12.8 SE 20.1 SE 0.0 943.0
13:35 18.0 63.2 1012.3 10.7 SE 21.5 SE 0.0 484.5
13:40 17.6 64.3 1012.2 13.1 SE 22.2 E 0.0 521.9
13:45 17.3 64.6 1012.1 10.7 SSE 19.8 ESE 0.0 507.4
13:50 17.4 64.5 1012.1 11.8 SE 24.0 SE 0.0 381.5
13:55 16.9 65.7 1012.1 9.9 SSE 19.1 SSE 0.0 305.7
14:00 16.7 64.8 1012.1 10.6 SSE 21.9 SE 0.0 389.9
14:05 17.1 63.7 1012.1 13.3 SE 22.6 E 0.0 635.4
14:10 16.9 62.4 1012.1 12.0 SSE 22.6 SSE 0.0 527.7
14:15 16.9 62.2 1012.1 10.5 SE 17.3 E 0.0 691.0
14:20 17.4 61.4 1012.0 8.7 SE 16.2 SE 0.0 757.2
14:25 17.8 59.6 1012.0 9.0 SE 20.8 SSE 0.0 789.0
14:30 18.0 58.1 1011.9 11.7 SSE 20.1 SE 0.0 756.8
14:35 17.8 57.7 1011.9 10.7 SSE 15.5 SSE 0.0 733.4
14:40 17.8 56.9 1011.9 9.6 SSE 17.3 SSE 0.0 675.1
14:45 17.6 57.6 1011.9 9.7 SSE 18.0 SE 0.0 621.3
14:50 17.7 56.5 1011.9 10.2 SSE 16.6 SE 0.0 602.3
14:55 17.4 56.6 1011.9 9.7 SE 20.8 SE 0.0 587.3
15:00 17.1 56.5 1011.8 14.8 SE 23.6 SE 0.0 576.4
15:05 17.0 56.8 1011.9 10.5 SSE 20.5 S 0.0 563.1
15:10 17.2 56.5 1011.8 10.0 SE 19.1 SSE 0.0 541.4
15:15 17.2 57.1 1011.8 9.5 SE 21.9 SE 0.0 526.8
15:20 16.9 56.8 1011.9 11.9 SE 22.2 SE 0.0 515.7
15:25 16.5 57.3 1011.9 11.6 SSE 21.2 SSE 0.0 502.6
15:30 16.4 57.8 1011.9 13.3 SE 21.5 SE 0.0 489.3
15:35 16.2 59.2 1011.9 11.3 SE 20.5 SE 0.0 479.8
15:40 16.1 59.9 1011.9 11.7 SE 20.8 SSE 0.0 464.3
15:45 16.2 59.7 1011.8 11.8 SSE 24.3 SSE 0.0 452.1
15:50 16.2 61.5 1011.9 10.3 SE 18.0 SE 0.0 421.0
15:55 16.1 62.1 1011.9 11.7 SE 21.5 ESE 0.0 418.5
16:00 15.9 64.5 1011.9 11.2 SSE 18.4 S 0.0 396.9
16:05 15.7 66.5 1011.9 8.7 SSE 15.9 S 0.0 382.1
16:10 15.6 68.0 1011.9 11.4 SSE 19.1 SSE 0.0 369.4
16:15 15.6 69.2 1011.9 9.1 SSE 20.5 SE 0.0 280.0
16:20 15.4 70.0 1011.9 10.2 SE 19.1 SSE 0.0 295.3
16:25 15.1 71.0 1011.9 10.0 SSE 18.0 SSE 0.0 130.6
16:30 14.7 72.8 1011.9 12.3 SE 20.5 S 0.0 117.7
16:35 14.6 73.6 1011.9 10.5 SSE 20.8 SE 0.0 113.6
16:40 14.4 75.8 1012.0 10.8 SSE 18.4 S 0.0 93.6
16:45 14.2 77.0 1012.0 8.7 SE 15.9 ESE 0.0 78.2
16:50 14.1 78.7 1012.0 10.3 SE 18.7 ESE 0.0 87.0
16:55 14.0 79.3 1012.0 8.2 SSE 19.8 SE 0.0 94.4
17:00 14.1 79.3 1012.0 9.6 SE 16.9 SE 0.0 74.4
17:05 14.0 79.8 1012.0 10.3 SE 15.5 SE 0.0 70.1
17:10 13.8 80.0 1012.1 9.4 SE 16.9 SSE 0.0 65.6
17:15 13.8 79.8 1012.0 6.7 SE 13.4 ESE 0.0 73.0
17:20 13.8 80.1 1012.1 6.6 SSE 14.5 SSE 0.0 62.1
17:25 13.9 79.9 1012.1 5.7 SSE 9.2 SSE 0.0 47.2
17:30 13.8 79.7 1012.2 8.4 SE 15.9 SSE 0.0 34.1
17:35 13.7 80.8 1012.2 8.1 SE 13.1 SE 0.0 27.3
17:40 13.7 81.9 1012.2 9.1 SE 15.9 SE 0.0 21.1
Máxima 19.4 88.8 1016.6 16.3 SE 27.9 ESE 0.0 953.0
Mínima 11.4 53.9 1011.8
Total 0.0